New Washoe City, Nevada
Current Conditions -  °F | °C
As of 10:35 AM on Saturday 20 Dec 2014 (Local Time) from KCXP Reporting Station
Few Clouds Few Clouds  
Wind Chill: 42°   Ceiling: Unl
Heat Index: 46°   Visibility: 10mi
Dew Point: 36°   Wind: 9mph
Humidity: 66%   Direction: 220°SW
Pressure: 30.13"   Gusts: 16mph
Location:  39.1386°N, 119.659°W
Report Text: KCXP 201835Z AUTO 22008G14KT 10SM FEW085 08/02 A3013 RMK AO2
Loading
Personal Weather Stations






























Interactive Weather Map New forecast layout! Learn more

10-Day Weather Forecast

Advertisements
Track Severe Weather on mobile